Terminal Aerodrome Forecast
Issued by NWS

Current Version | Previous Version | Text Only | Print | Product List | Glossary On
Versions: 1 2 3 4 5 6 7 8 9 10 11 12 13 14 15 16 17 18 19 20 21 22 23 24 25 26
000
FTUS41 KRLX 071510 AAA
TAFCKB
TAF AMD
KCKB 071510Z 0715/0812 22008G15KT P6SM BKN035
     FM071800 21010G18KT P6SM BKN035
     FM072100 23009KT P6SM BKN040 BKN100
     FM072300 22007KT 3SM TSRA BR BKN035CB BKN080
     FM080300 23005KT 2SM SHRA BR VCTS BKN030CB BKN080=

USA.gov is the U.S. government's official web portal to all federal, state and local government web resources and services.